createdAt,value
2019-03-12T00:00:36.230Z,8.15
2019-03-12T00:03:05.636Z,7.65
2019-03-12T00:05:35.075Z,8.38
2019-03-12T00:08:04.495Z,9.75
2019-03-12T00:10:33.944Z,7.92
2019-03-12T00:13:03.293Z,7.72
2019-03-12T00:15:32.737Z,7.92
2019-03-12T00:18:02.149Z,8.33
2019-03-12T00:20:31.694Z,6.90
2019-03-12T00:23:01.459Z,7.37
2019-03-12T00:25:30.908Z,8.03
2019-03-12T00:28:00.327Z,8.53
2019-03-12T00:30:29.768Z,6.95
2019-03-12T00:32:59.180Z,6.58
2019-03-12T00:35:28.939Z,7.85
2019-03-12T00:37:58.358Z,7.00
2019-03-12T00:40:27.799Z,6.80
2019-03-12T00:42:57.139Z,7.92
2019-03-12T00:45:26.585Z,8.25
2019-03-12T00:47:55.923Z,8.60
2019-03-12T00:50:25.296Z,12.47
2019-03-12T00:52:54.641Z,15.68
2019-03-12T00:55:24.087Z,14.07
2019-03-12T00:57:53.510Z,13.55
2019-03-12T01:00:22.956Z,11.25
2019-03-12T01:02:52.303Z,11.12
2019-03-12T01:05:21.701Z,10.35
2019-03-12T01:07:51.054Z,10.75
2019-03-12T01:10:20.426Z,9.55
2019-03-12T01:12:49.836Z,9.38
2019-03-12T01:15:19.213Z,11.63
2019-03-12T01:17:48.564Z,10.28
2019-03-12T01:20:17.948Z,9.70
2019-03-12T01:22:47.287Z,10.53
2019-03-12T01:25:16.744Z,9.68
2019-03-12T01:27:46.164Z,9.53
2019-03-12T01:30:17.628Z,11.45
2019-03-12T01:32:46.981Z,11.15
2019-03-12T01:35:16.358Z,10.00
2019-03-12T01:37:45.804Z,9.83
2019-03-12T01:40:15.179Z,8.85
2019-03-12T01:42:44.550Z,9.23
2019-03-12T01:45:14.433Z,8.50
2019-03-12T01:47:43.874Z,8.28
2019-03-12T01:50:14.229Z,7.15
2019-03-12T01:52:43.762Z,7.87
2019-03-12T01:55:18.947Z,7.75
2019-03-12T01:57:48.384Z,6.85
2019-03-12T02:00:18.564Z,8.00
2019-03-12T02:02:47.941Z,7.20
2019-03-12T02:05:17.356Z,6.87
2019-03-12T02:07:46.720Z,6.45
2019-03-12T02:10:16.132Z,6.47
2019-03-12T02:12:45.495Z,6.78
2019-03-12T02:15:16.842Z,7.03
2019-03-12T02:17:46.282Z,5.58
2019-03-12T02:20:19.347Z,7.10
2019-03-12T02:22:48.792Z,6.42
2019-03-12T02:25:18.773Z,6.78
2019-03-12T02:27:48.215Z,5.45
2019-03-12T02:30:19.103Z,6.03
2019-03-12T02:32:48.550Z,6.08
2019-03-12T02:35:17.884Z,5.72
2019-03-12T02:37:47.252Z,6.22
2019-03-12T02:40:16.684Z,5.92
2019-03-12T02:42:46.049Z,5.33
2019-03-12T02:45:16.191Z,5.30
2019-03-12T02:47:45.552Z,6.00
2019-03-12T02:50:15.506Z,5.58
2019-03-12T02:52:44.922Z,6.58
2019-03-12T02:55:14.576Z,5.28
2019-03-12T02:57:43.962Z,6.15
2019-03-12T03:00:21.000Z,6.60
2019-03-12T03:02:50.392Z,6.17
2019-03-12T03:05:19.778Z,6.22
2019-03-12T03:08:02.814Z,6.05
2019-03-12T03:10:32.158Z,6.87
2019-03-12T03:13:02.018Z,6.50
2019-03-12T03:15:35.663Z,5.72
2019-03-12T03:18:05.099Z,6.33
2019-03-12T03:20:34.450Z,6.83
2019-03-12T03:23:03.815Z,7.00
2019-03-12T03:25:33.182Z,7.00
2019-03-12T03:28:02.543Z,6.30
2019-03-12T03:30:31.941Z,6.20
2019-03-12T03:33:01.502Z,5.90
2019-03-12T03:35:30.913Z,6.08
2019-03-12T03:38:00.710Z,6.97
2019-03-12T03:40:30.134Z,7.00
2019-03-12T03:42:59.573Z,6.67
2019-03-12T03:45:28.918Z,6.53
2019-03-12T03:47:58.356Z,6.95
2019-03-12T03:50:27.712Z,6.30
2019-03-12T03:52:57.143Z,6.78
2019-03-12T03:55:26.482Z,7.45
2019-03-12T03:57:55.853Z,8.18
2019-03-12T04:00:25.529Z,7.97
2019-03-12T04:02:54.898Z,7.65
2019-03-12T04:05:24.303Z,7.78
2019-03-12T04:07:53.698Z,7.53
2019-03-12T04:10:23.109Z,8.00
2019-03-12T04:12:52.468Z,8.10
2019-03-12T04:15:21.907Z,7.50
2019-03-12T04:17:51.262Z,8.25
2019-03-12T04:20:20.623Z,7.85
2019-03-12T04:22:49.961Z,8.40
2019-03-12T04:25:19.359Z,8.70
2019-03-12T04:27:48.716Z,8.60
2019-03-12T04:30:18.814Z,8.63
2019-03-12T04:32:48.154Z,8.53
2019-03-12T04:35:23.668Z,8.30
2019-03-12T04:37:53.010Z,10.05
2019-03-12T04:40:22.396Z,8.48
2019-03-12T04:42:51.741Z,7.37
2019-03-12T04:45:21.114Z,7.95
2019-03-12T04:47:50.526Z,7.85
2019-03-12T04:50:19.967Z,7.67
2019-03-12T04:52:49.384Z,7.75
2019-03-12T04:55:18.831Z,7.28
2019-03-12T04:57:48.233Z,6.62
2019-03-12T05:00:18.739Z,6.62
2019-03-12T05:02:48.082Z,6.25
2019-03-12T05:05:17.457Z,6.53
2019-03-12T05:07:46.793Z,6.42
2019-03-12T05:10:16.574Z,6.65
2019-03-12T05:12:45.962Z,5.97
2019-03-12T05:15:18.761Z,6.45
2019-03-12T05:17:48.107Z,5.75
2019-03-12T05:20:17.478Z,7.08
2019-03-12T05:22:46.892Z,5.90
2019-03-12T05:25:16.259Z,5.80
2019-03-12T05:27:45.681Z,5.90
2019-03-12T05:30:17.704Z,6.12
2019-03-12T05:32:47.037Z,6.05
2019-03-12T05:35:16.412Z,6.28
2019-03-12T05:37:45.824Z,6.75
2019-03-12T05:40:15.741Z,7.15
2019-03-12T05:42:45.111Z,6.45
2019-03-12T05:45:17.967Z,6.60
2019-03-12T05:47:47.392Z,6.58
2019-03-12T05:50:17.696Z,6.35
2019-03-12T05:52:49.041Z,6.50
2019-03-12T05:55:18.320Z,6.30
2019-03-12T05:57:47.753Z,6.58
2019-03-12T06:00:21.956Z,6.83
2019-03-12T06:02:51.326Z,6.60
2019-03-12T06:05:20.711Z,6.08
2019-03-12T06:07:50.158Z,6.95
2019-03-12T06:10:19.574Z,6.33
2019-03-12T06:12:49.025Z,7.42
2019-03-12T06:15:18.444Z,7.78
2019-03-12T06:17:47.833Z,6.70
2019-03-12T06:20:17.552Z,6.72
2019-03-12T06:22:47.033Z,7.47
2019-03-12T06:25:16.381Z,7.00
2019-03-12T06:27:45.818Z,6.08
2019-03-12T06:30:16.719Z,7.28
2019-03-12T06:33:05.652Z,5.78
2019-03-12T06:35:45.772Z,6.97
2019-03-12T06:38:16.851Z,7.83
2019-03-12T06:40:53.932Z,8.00
2019-03-12T06:43:25.054Z,14.05
2019-03-12T06:46:11.210Z,7.62
2019-03-12T06:48:51.171Z,6.25
2019-03-12T06:51:40.420Z,6.30
2019-03-12T06:54:14.435Z,6.75
2019-03-12T06:57:01.541Z,8.18
2019-03-12T06:59:35.552Z,6.90
2019-03-12T07:02:23.216Z,10.55
2019-03-12T07:04:57.217Z,6.25
2019-03-12T07:07:45.992Z,6.17
2019-03-12T07:10:35.063Z,7.10
2019-03-12T07:13:07.297Z,7.33
2019-03-12T07:15:38.375Z,9.18
2019-03-12T07:18:09.458Z,8.35
2019-03-12T07:20:55.652Z,6.83
2019-03-12T07:23:42.737Z,7.67
2019-03-12T07:26:13.724Z,8.10
2019-03-12T07:28:50.202Z,8.55
2019-03-12T07:31:32.379Z,9.18
2019-03-12T07:34:03.475Z,7.78
2019-03-12T07:36:43.473Z,7.95
2019-03-12T07:39:14.480Z,6.75
2019-03-12T07:41:45.461Z,6.15
2019-03-12T07:44:16.664Z,7.62
2019-03-12T07:46:56.670Z,6.58
2019-03-12T07:49:33.452Z,6.42
2019-03-12T07:52:04.517Z,6.35
2019-03-12T07:54:41.536Z,6.03
2019-03-12T07:57:18.299Z,6.45
2019-03-12T07:59:49.335Z,6.42
2019-03-12T08:02:23.342Z,8.15
2019-03-12T08:04:57.077Z,6.95
2019-03-12T08:07:40.239Z,6.08
2019-03-12T08:10:20.967Z,5.85
2019-03-12T08:13:01.749Z,6.35
2019-03-12T08:15:41.889Z,6.22
2019-03-12T08:18:12.849Z,6.35
2019-03-12T08:20:46.532Z,6.87
2019-03-12T08:23:32.644Z,6.67
2019-03-12T08:26:19.426Z,6.85
2019-03-12T08:29:06.380Z,6.78
2019-03-12T08:31:43.176Z,6.67
2019-03-12T08:34:17.101Z,6.62
2019-03-12T08:36:57.068Z,7.12
2019-03-12T08:39:39.633Z,6.78
2019-03-12T08:42:26.653Z,7.42
2019-03-12T08:45:16.565Z,8.05
2019-03-12T08:47:49.127Z,7.28
2019-03-12T08:50:35.337Z,8.65
2019-03-12T08:53:12.386Z,7.62
2019-03-12T08:55:59.741Z,7.87
2019-03-12T08:58:33.551Z,9.25
2019-03-12T09:01:20.920Z,9.10
2019-03-12T09:03:57.636Z,9.38
2019-03-12T09:06:28.736Z,8.60
2019-03-12T09:09:14.852Z,8.58
2019-03-12T09:11:57.881Z,9.33
2019-03-12T09:14:44.916Z,8.98
2019-03-12T09:17:25.027Z,8.73
2019-03-12T09:19:59.049Z,9.40
2019-03-12T09:22:32.734Z,8.53
2019-03-12T09:25:03.784Z,10.03
2019-03-12T09:27:37.616Z,8.93
2019-03-12T09:30:27.227Z,9.80
2019-03-12T09:33:04.287Z,8.68
2019-03-12T09:35:44.254Z,10.40
2019-03-12T09:38:18.231Z,9.78
2019-03-12T09:41:05.381Z,10.20
2019-03-12T09:43:48.074Z,11.22
2019-03-12T09:46:17.966Z,10.68
2019-03-12T09:48:54.548Z,11.15
2019-03-12T09:51:25.542Z,11.03
2019-03-12T09:53:59.266Z,10.82
2019-03-12T09:56:35.929Z,11.93
2019-03-12T09:59:07.019Z,10.18
2019-03-12T10:01:40.775Z,17.00
2019-03-12T10:04:28.006Z,17.55
2019-03-12T10:07:14.024Z,12.90
2019-03-12T10:09:45.156Z,22.30
2019-03-12T10:12:25.042Z,24.20
2019-03-12T10:14:56.132Z,13.85
2019-03-12T10:17:33.169Z,12.65
2019-03-12T10:20:04.189Z,11.80
2019-03-12T10:22:47.068Z,8.63
2019-03-12T10:25:25.287Z,8.95
2019-03-12T10:27:59.263Z,8.75
2019-03-12T10:30:39.218Z,12.43
2019-03-12T10:33:10.215Z,21.73
2019-03-12T10:35:57.274Z,23.00
2019-03-12T10:39:20.296Z,7.53
2019-03-12T10:41:54.088Z,7.30
2019-03-12T10:44:26.697Z,7.53
2019-03-12T10:46:57.759Z,6.97
2019-03-12T10:49:36.915Z,22.27
2019-03-12T10:51:58.331Z,11.83
2019-03-12T10:54:27.683Z,9.88
2019-03-12T10:56:57.124Z,8.80
2019-03-12T10:59:26.465Z,6.58
2019-03-12T11:01:55.872Z,6.22
2019-03-12T11:04:25.284Z,11.70
2019-03-12T11:06:54.732Z,7.37
2019-03-12T11:09:24.109Z,7.92
2019-03-12T11:11:53.494Z,10.38
2019-03-12T11:14:22.932Z,7.97
2019-03-12T11:16:52.339Z,6.97
2019-03-12T11:19:21.715Z,10.45
2019-03-12T11:21:51.129Z,5.75
2019-03-12T11:24:20.628Z,21.15
2019-03-12T11:26:49.979Z,7.05
2019-03-12T11:29:19.339Z,7.70
2019-03-12T11:31:48.676Z,5.90
2019-03-12T11:34:18.057Z,5.97
2019-03-12T11:36:47.497Z,6.62
2019-03-12T11:39:16.912Z,6.05
2019-03-12T11:41:46.376Z,7.45
2019-03-12T11:44:15.805Z,7.10
2019-03-12T11:46:46.108Z,6.55
2019-03-12T11:49:15.676Z,4.92
2019-03-12T11:51:45.080Z,5.35
2019-03-12T11:54:14.562Z,4.45
2019-03-12T11:56:44.063Z,4.70
2019-03-12T11:59:13.493Z,4.97
2019-03-12T12:01:42.902Z,4.37
2019-03-12T12:04:12.363Z,5.53
2019-03-12T12:06:43.065Z,4.37
2019-03-12T12:09:13.469Z,4.62
2019-03-12T12:11:42.964Z,4.72
2019-03-12T12:14:13.228Z,4.75
2019-03-12T12:16:42.634Z,3.92
2019-03-12T12:19:14.427Z,3.67
2019-03-12T12:21:44.172Z,3.40
2019-03-12T12:24:13.613Z,3.75
2019-03-12T12:26:42.947Z,4.47
2019-03-12T12:29:12.311Z,4.37
2019-03-12T12:31:41.724Z,4.67
2019-03-12T12:34:11.095Z,4.22
2019-03-12T12:36:40.435Z,4.72
2019-03-12T12:39:09.878Z,5.25
2019-03-12T12:41:39.282Z,4.50
2019-03-12T12:44:11.824Z,5.80
2019-03-12T12:46:41.170Z,4.40
2019-03-12T12:49:10.599Z,4.28
2019-03-12T12:51:40.013Z,4.17
2019-03-12T12:54:09.978Z,4.12
2019-03-12T12:56:39.335Z,4.17
2019-03-12T12:59:09.099Z,5.90
2019-03-12T13:01:40.887Z,6.58
2019-03-12T13:04:10.287Z,5.53
2019-03-12T13:06:39.941Z,5.85
2019-03-12T13:09:09.348Z,4.62
2019-03-12T13:11:39.140Z,4.33
2019-03-12T13:14:08.483Z,5.03
2019-03-12T13:16:37.924Z,4.80
2019-03-12T13:19:07.273Z,5.08
2019-03-12T13:21:37.087Z,3.37
2019-03-12T13:24:06.545Z,4.10
2019-03-12T13:26:36.280Z,4.92
2019-03-12T13:29:05.697Z,4.47
2019-03-12T13:31:35.180Z,3.08
2019-03-12T13:34:04.595Z,2.85
2019-03-12T13:36:33.981Z,2.80
2019-03-12T13:39:04.236Z,2.25
2019-03-12T13:41:33.627Z,3.10
2019-03-12T13:44:03.070Z,3.62
2019-03-12T13:46:32.594Z,3.42
2019-03-12T13:49:02.036Z,4.12
2019-03-12T13:51:31.477Z,2.87
2019-03-12T13:54:00.883Z,2.47
2019-03-12T13:56:30.245Z,3.12
2019-03-12T13:58:59.585Z,2.65
2019-03-12T14:01:28.946Z,2.75
2019-03-12T14:04:10.055Z,3.85
2019-03-12T14:06:29.420Z,3.30
2019-03-12T14:08:58.841Z,3.12
2019-03-12T14:11:28.209Z,3.02
2019-03-12T14:13:57.548Z,3.02
2019-03-12T14:16:26.913Z,3.27
2019-03-12T14:18:56.249Z,2.40
2019-03-12T14:21:25.693Z,2.85
2019-03-12T14:24:00.638Z,3.12
2019-03-12T14:26:30.378Z,3.65
2019-03-12T14:28:59.817Z,3.58
2019-03-12T14:31:29.253Z,4.35
2019-03-12T14:33:58.667Z,5.12
2019-03-12T14:36:28.105Z,3.10
2019-03-12T14:38:57.445Z,2.80
2019-03-12T14:41:26.813Z,3.30
2019-03-12T14:43:56.150Z,2.77
2019-03-12T14:46:25.597Z,4.03
2019-03-12T14:48:55.344Z,6.10
2019-03-12T14:51:42.840Z,4.47
2019-03-12T14:54:12.906Z,6.42
2019-03-12T14:56:43.810Z,5.37
2019-03-12T14:59:14.667Z,4.53
2019-03-12T15:01:43.645Z,5.75
2019-03-12T15:04:15.121Z,4.70
2019-03-12T15:06:44.053Z,4.60
2019-03-12T15:09:14.604Z,7.15
2019-03-12T15:11:44.070Z,8.25
2019-03-12T15:14:13.491Z,7.62
2019-03-12T15:16:43.010Z,6.58
2019-03-12T15:19:12.448Z,6.85
2019-03-12T15:21:41.819Z,8.70
2019-03-12T15:24:12.091Z,6.37
2019-03-12T15:26:41.799Z,6.00
2019-03-12T15:29:11.184Z,7.92
2019-03-12T15:31:40.596Z,8.90
2019-03-12T15:34:10.349Z,11.22
2019-03-12T15:36:39.759Z,13.22
2019-03-12T15:39:09.547Z,10.98
2019-03-12T15:41:39.096Z,10.90
2019-03-12T15:44:08.470Z,10.63
2019-03-12T15:46:37.825Z,12.35
2019-03-12T15:49:07.281Z,17.32
2019-03-12T15:51:36.622Z,18.07
2019-03-12T15:54:06.384Z,19.35
2019-03-12T15:56:35.805Z,74.22
2019-03-12T15:59:05.192Z,34.95
2019-03-12T16:01:34.616Z,18.55
2019-03-12T16:04:04.058Z,16.42
2019-03-12T16:06:33.418Z,13.13
2019-03-12T16:09:03.361Z,15.93
2019-03-12T16:11:32.709Z,16.87
2019-03-12T16:14:02.089Z,14.80
2019-03-12T16:16:31.591Z,14.10
2019-03-12T16:19:00.974Z,14.60
2019-03-12T16:21:30.465Z,19.12
2019-03-12T16:23:59.838Z,22.58
2019-03-12T16:26:29.197Z,21.55
2019-03-12T16:28:58.569Z,21.57
2019-03-12T16:31:28.029Z,25.25
2019-03-12T16:33:57.479Z,30.30
2019-03-12T16:36:26.899Z,82.92
2019-03-12T16:38:56.318Z,93.30
2019-03-12T16:41:25.749Z,121.50
2019-03-12T16:43:55.216Z,156.97
2019-03-12T16:46:24.570Z,68.67
2019-03-12T16:48:53.950Z,92.80
2019-03-12T16:51:23.308Z,99.87
2019-03-12T16:53:52.759Z,131.35
2019-03-12T16:56:22.119Z,133.22
2019-03-12T16:58:51.569Z,132.05
2019-03-12T17:01:20.989Z,85.97
2019-03-12T17:03:50.376Z,72.90
2019-03-12T17:06:19.732Z,82.02
2019-03-12T17:08:49.187Z,92.08
2019-03-12T17:11:18.612Z,103.40
2019-03-12T17:13:48.014Z,112.85
2019-03-12T17:16:17.436Z,100.45
2019-03-12T17:18:46.893Z,104.58
2019-03-12T17:21:16.360Z,98.87
2019-03-12T17:23:45.832Z,378.37
2019-03-12T17:26:15.289Z,414.85
2019-03-12T17:28:44.721Z,637.45
2019-03-12T17:31:14.176Z,592.27
2019-03-12T17:33:43.607Z,188.97
2019-03-12T17:36:13.275Z,131.27
2019-03-12T17:38:46.825Z,84.52
2019-03-12T17:41:13.784Z,50.40
2019-03-12T17:43:43.144Z,43.60
2019-03-12T17:46:12.601Z,108.80
2019-03-12T17:48:42.014Z,87.82
2019-03-12T17:51:11.462Z,76.42
2019-03-12T17:53:40.814Z,62.05
2019-03-12T17:56:10.267Z,59.63
2019-03-12T17:58:39.617Z,56.18
2019-03-12T18:01:09.498Z,80.22
2019-03-12T18:03:38.974Z,296.35
2019-03-12T18:06:08.360Z,139.10
2019-03-12T18:08:37.793Z,923.90
2019-03-12T18:11:07.534Z,201.42
2019-03-12T18:13:36.880Z,79.40
2019-03-12T18:16:06.449Z,48.38
2019-03-12T18:18:35.794Z,88.35
2019-03-12T18:21:05.198Z,106.37
2019-03-12T18:23:34.562Z,105.35
2019-03-12T18:26:05.855Z,228.07
2019-03-12T18:28:35.209Z,75.35
2019-03-12T18:31:05.063Z,75.80
2019-03-12T18:33:34.434Z,93.70
2019-03-12T18:36:03.817Z,61.37
2019-03-12T18:38:33.260Z,101.12
2019-03-12T18:41:02.638Z,84.92
2019-03-12T18:43:32.062Z,43.17
2019-03-12T18:46:01.518Z,105.10
2019-03-12T18:48:30.940Z,86.28
2019-03-12T18:51:00.391Z,52.40
2019-03-12T18:53:29.747Z,56.20
2019-03-12T18:56:01.444Z,46.20
2019-03-12T18:58:30.788Z,104.63
2019-03-12T19:01:01.511Z,50.80
2019-03-12T19:03:30.933Z,67.35
2019-03-12T19:06:00.413Z,57.30
2019-03-12T19:08:29.822Z,147.32
2019-03-12T19:10:59.210Z,366.15
2019-03-12T19:13:28.612Z,241.10
2019-03-12T19:15:57.968Z,693.25
2019-03-12T19:18:27.372Z,110.37
2019-03-12T19:20:56.717Z,89.35
2019-03-12T19:23:26.176Z,105.17
2019-03-12T19:25:55.663Z,88.15
2019-03-12T19:28:25.045Z,47.62
2019-03-12T19:30:56.110Z,72.55
2019-03-12T19:33:27.185Z,39.73
2019-03-12T19:35:56.542Z,42.15
2019-03-12T19:38:25.994Z,37.98
2019-03-12T19:40:57.162Z,50.90
2019-03-12T19:43:26.547Z,34.23
2019-03-12T19:45:55.904Z,58.78
2019-03-12T19:48:25.344Z,32.95
2019-03-12T19:50:54.765Z,28.38
2019-03-12T19:53:24.209Z,29.72
2019-03-12T19:55:56.729Z,27.75
2019-03-12T19:58:28.459Z,32.10
2019-03-12T20:00:57.452Z,32.48
2019-03-12T20:03:27.001Z,26.10
2019-03-12T20:05:56.411Z,31.25
2019-03-12T20:08:25.851Z,38.00
2019-03-12T20:11:07.629Z,29.87
2019-03-12T20:14:02.428Z,26.52
2019-03-12T20:17:08.996Z,27.73
2019-03-12T20:19:46.785Z,21.55
2019-03-12T20:22:31.412Z,23.55
2019-03-12T20:25:30.488Z,20.80
2019-03-12T20:28:19.408Z,19.55
2019-03-12T20:31:08.460Z,49.85
2019-03-12T20:33:57.390Z,67.55
2019-03-12T20:36:47.951Z,189.43
2019-03-12T20:39:25.792Z,300.27
2019-03-12T20:42:17.840Z,96.42
2019-03-12T20:45:07.133Z,84.22
2019-03-12T20:47:56.050Z,55.80
2019-03-12T20:50:43.546Z,39.95
2019-03-12T20:53:43.015Z,42.17
2019-03-12T20:56:24.618Z,24.40
2019-03-12T20:59:30.041Z,24.75
2019-03-12T21:02:28.033Z,20.95
2019-03-12T21:05:23.162Z,18.17
2019-03-12T21:08:21.020Z,19.87
2019-03-12T21:11:11.336Z,15.50
2019-03-12T21:14:09.137Z,19.27
2019-03-12T21:16:56.557Z,14.53
2019-03-12T21:19:44.173Z,14.60
2019-03-12T21:22:22.661Z,16.25
2019-03-12T21:24:58.028Z,14.10
2019-03-12T21:27:33.501Z,16.23
2019-03-12T21:30:01.986Z,17.62
2019-03-12T21:32:31.406Z,20.37
2019-03-12T21:35:00.845Z,22.07
2019-03-12T21:37:30.268Z,26.00
2019-03-12T21:39:59.722Z,35.92
2019-03-12T21:42:29.077Z,27.95
2019-03-12T21:44:58.532Z,34.85
2019-03-12T21:47:27.953Z,30.08
2019-03-12T21:49:57.512Z,21.42
2019-03-12T21:52:26.937Z,24.50
2019-03-12T21:54:56.303Z,29.60
2019-03-12T21:57:25.722Z,19.30
2019-03-12T21:59:55.170Z,18.90
2019-03-12T22:02:24.599Z,55.15
2019-03-12T22:04:54.045Z,18.05
2019-03-12T22:07:23.392Z,19.57
2019-03-12T22:09:52.916Z,15.75
2019-03-12T22:12:22.341Z,67.22
2019-03-12T22:14:51.721Z,36.58
2019-03-12T22:17:21.069Z,36.20
2019-03-12T22:19:50.450Z,22.22
2019-03-12T22:22:24.150Z,26.40
2019-03-12T22:24:53.540Z,26.42
2019-03-12T22:27:22.985Z,20.43
2019-03-12T22:29:52.374Z,23.38
2019-03-12T22:32:21.788Z,15.28
2019-03-12T22:34:51.170Z,19.70
2019-03-12T22:37:20.506Z,12.15
2019-03-12T22:39:49.896Z,13.22
2019-03-12T22:42:19.313Z,11.45
2019-03-12T22:44:48.689Z,12.13
2019-03-12T22:47:18.068Z,10.78
2019-03-12T22:49:47.434Z,9.30
2019-03-12T22:52:16.809Z,8.98
2019-03-12T22:54:46.148Z,10.03
2019-03-12T22:57:15.598Z,10.82
2019-03-12T22:59:45.003Z,10.58
2019-03-12T23:02:14.449Z,11.57
2019-03-12T23:04:43.922Z,10.32
2019-03-12T23:07:13.381Z,12.35
2019-03-12T23:09:42.841Z,9.33
2019-03-12T23:12:12.278Z,9.08
2019-03-12T23:14:42.155Z,9.98
2019-03-12T23:17:11.576Z,9.30
2019-03-12T23:19:40.979Z,10.10
2019-03-12T23:22:10.409Z,10.48
2019-03-12T23:24:39.810Z,11.30
2019-03-12T23:27:10.467Z,16.45
2019-03-12T23:29:39.855Z,18.12
2019-03-12T23:32:09.630Z,33.78
2019-03-12T23:34:39.120Z,36.77
2019-03-12T23:37:08.543Z,26.07
2019-03-12T23:39:38.037Z,10.15
2019-03-12T23:42:07.531Z,11.35
2019-03-12T23:44:36.998Z,11.50
2019-03-12T23:47:06.593Z,13.28
2019-03-12T23:49:36.068Z,10.82
2019-03-12T23:52:05.567Z,10.85
2019-03-12T23:54:35.096Z,8.55
2019-03-12T23:57:04.607Z,10.03
2019-03-12T23:59:34.083Z,11.18
